createdAt,value
2019-02-17T00:00:37.778Z,36.77
2019-02-17T00:03:42.742Z,42.00
2019-02-17T00:06:47.848Z,40.47
2019-02-17T00:09:52.882Z,44.93
2019-02-17T00:12:57.923Z,39.80
2019-02-17T00:16:02.959Z,39.00
2019-02-17T00:19:08.018Z,38.37
2019-02-17T00:22:13.118Z,41.50
2019-02-17T00:25:20.408Z,43.33
2019-02-17T00:28:24.792Z,38.83
2019-02-17T00:31:29.837Z,40.60
2019-02-17T00:34:34.774Z,41.80
2019-02-17T00:37:39.760Z,43.70
2019-02-17T00:40:44.961Z,42.50
2019-02-17T00:43:49.981Z,37.00
2019-02-17T00:46:55.092Z,42.10
2019-02-17T00:50:00.317Z,40.90
2019-02-17T00:53:05.399Z,41.57
2019-02-17T00:56:10.459Z,37.50
2019-02-17T00:59:15.498Z,38.63
2019-02-17T01:02:20.599Z,42.70
2019-02-17T01:05:25.713Z,40.63
2019-02-17T01:08:32.582Z,41.93
2019-02-17T01:11:37.614Z,45.53
2019-02-17T01:14:42.726Z,32.60
2019-02-17T01:17:47.769Z,38.53
2019-02-17T01:20:53.059Z,43.43
2019-02-17T01:23:58.107Z,45.20
2019-02-17T01:27:03.224Z,40.07
2019-02-17T01:30:08.719Z,43.70
2019-02-17T01:33:13.840Z,41.03
2019-02-17T01:36:18.943Z,42.30
2019-02-17T01:39:23.987Z,44.53
2019-02-17T01:42:29.092Z,41.93
2019-02-17T01:45:34.207Z,36.50
2019-02-17T01:48:39.163Z,40.33
2019-02-17T01:51:44.204Z,35.80
2019-02-17T01:54:49.162Z,40.33
2019-02-17T01:57:54.292Z,35.40
2019-02-17T02:00:59.531Z,38.43
2019-02-17T02:04:04.724Z,37.67
2019-02-17T02:07:09.912Z,37.67
2019-02-17T02:10:15.027Z,40.17
2019-02-17T02:13:20.215Z,38.57
2019-02-17T02:16:25.272Z,35.30
2019-02-17T02:19:30.392Z,37.77
2019-02-17T02:22:35.450Z,41.80
2019-02-17T02:25:40.487Z,36.50
2019-02-17T02:28:45.467Z,43.83
2019-02-17T02:31:50.428Z,40.10
2019-02-17T02:34:57.371Z,43.30
2019-02-17T02:38:02.408Z,39.20
2019-02-17T02:41:07.375Z,42.13
2019-02-17T02:44:12.341Z,39.67
2019-02-17T02:47:17.481Z,35.07
2019-02-17T02:50:22.716Z,44.03
2019-02-17T02:53:27.754Z,38.70
2019-02-17T02:56:32.812Z,41.07
2019-02-17T02:59:37.847Z,40.60
2019-02-17T03:02:42.919Z,36.80
2019-02-17T03:06:00.332Z,40.57
2019-02-17T03:09:06.040Z,40.17
2019-02-17T03:12:11.169Z,38.90
2019-02-17T03:15:16.132Z,34.87
2019-02-17T03:18:21.187Z,39.87
2019-02-17T03:21:26.219Z,35.03
2019-02-17T03:24:31.335Z,38.70
2019-02-17T03:27:36.408Z,37.60
2019-02-17T03:30:41.440Z,36.03
2019-02-17T03:33:46.577Z,42.20
2019-02-17T03:36:51.616Z,39.63
2019-02-17T03:39:56.585Z,39.80
2019-02-17T03:43:01.690Z,37.17
2019-02-17T03:46:06.751Z,37.47
2019-02-17T03:49:11.976Z,33.87
2019-02-17T03:52:17.032Z,42.47
2019-02-17T03:55:22.118Z,35.50
2019-02-17T03:58:27.245Z,42.30
2019-02-17T04:01:32.384Z,38.20
2019-02-17T04:04:37.432Z,35.87
2019-02-17T04:07:42.486Z,35.50
2019-02-17T04:10:47.518Z,42.43
2019-02-17T04:13:52.552Z,42.53
2019-02-17T04:16:57.680Z,41.60
2019-02-17T04:20:02.795Z,35.60
2019-02-17T04:23:07.802Z,34.47
2019-02-17T04:26:12.841Z,39.70
2019-02-17T04:29:17.875Z,42.33
2019-02-17T04:32:22.852Z,36.40
2019-02-17T04:35:28.043Z,32.93
2019-02-17T04:38:33.024Z,40.00
2019-02-17T04:41:38.075Z,38.97
2019-02-17T04:44:43.116Z,38.13
2019-02-17T04:47:48.157Z,37.33
2019-02-17T04:50:53.193Z,37.23
2019-02-17T04:53:58.323Z,36.47
2019-02-17T04:57:03.436Z,39.70
2019-02-17T05:00:08.820Z,38.40
2019-02-17T05:03:14.991Z,35.20
2019-02-17T05:06:20.043Z,39.23
2019-02-17T05:09:25.091Z,38.37
2019-02-17T05:12:30.219Z,34.10
2019-02-17T05:15:35.356Z,33.97
2019-02-17T05:18:40.389Z,34.60
2019-02-17T05:21:45.375Z,36.27
2019-02-17T05:24:50.403Z,35.97
2019-02-17T05:27:55.442Z,37.30
2019-02-17T05:31:00.483Z,36.70
2019-02-17T05:34:05.527Z,38.10
2019-02-17T05:37:10.599Z,35.03
2019-02-17T05:40:15.708Z,37.87
2019-02-17T05:43:20.831Z,35.60
2019-02-17T05:46:25.791Z,38.43
2019-02-17T05:49:30.912Z,34.30
2019-02-17T05:52:36.020Z,33.90
2019-02-17T05:55:41.061Z,35.37
2019-02-17T05:58:46.039Z,36.63
2019-02-17T06:01:51.139Z,40.10
2019-02-17T06:04:56.141Z,35.03
2019-02-17T06:08:01.330Z,35.27
2019-02-17T06:11:06.452Z,40.50
2019-02-17T06:14:11.479Z,39.50
2019-02-17T06:17:16.512Z,38.33
2019-02-17T06:20:21.576Z,34.97
2019-02-17T06:23:26.624Z,36.03
2019-02-17T06:26:31.679Z,39.53
2019-02-17T06:29:36.646Z,33.53
2019-02-17T06:32:41.692Z,31.80
2019-02-17T06:35:46.802Z,41.10
2019-02-17T06:38:51.860Z,41.67
2019-02-17T06:41:56.833Z,35.23
2019-02-17T06:45:01.835Z,35.00
2019-02-17T06:48:07.105Z,37.10
2019-02-17T06:51:12.147Z,33.50
2019-02-17T06:54:17.213Z,37.83
2019-02-17T06:57:26.604Z,36.93
2019-02-17T07:00:37.076Z,36.30
2019-02-17T07:03:42.028Z,34.50
2019-02-17T07:07:06.252Z,39.47
2019-02-17T07:10:11.362Z,38.17
2019-02-17T07:13:16.433Z,39.23
2019-02-17T07:16:22.728Z,33.43
2019-02-17T07:19:27.931Z,40.07
2019-02-17T07:22:32.988Z,39.87
2019-02-17T07:25:38.019Z,36.70
2019-02-17T07:28:43.070Z,35.10
2019-02-17T07:31:48.103Z,36.80
2019-02-17T07:34:53.164Z,40.13
2019-02-17T07:37:58.196Z,40.30
2019-02-17T07:41:03.239Z,38.90
2019-02-17T07:44:08.342Z,40.27
2019-02-17T07:47:13.390Z,37.93
2019-02-17T07:50:18.580Z,39.10
2019-02-17T07:53:23.681Z,42.90
2019-02-17T07:56:28.659Z,38.57
2019-02-17T07:59:33.702Z,38.13
2019-02-17T08:02:38.821Z,38.57
2019-02-17T08:05:43.877Z,35.40
2019-02-17T08:08:48.880Z,38.30
2019-02-17T08:11:53.998Z,34.43
2019-02-17T08:14:59.026Z,35.93
2019-02-17T08:18:05.283Z,36.33
2019-02-17T08:21:10.322Z,34.53
2019-02-17T08:24:15.374Z,38.00
2019-02-17T08:27:20.408Z,37.10
2019-02-17T08:30:25.531Z,39.53
2019-02-17T08:33:30.567Z,40.00
2019-02-17T08:36:35.623Z,34.93
2019-02-17T08:39:40.680Z,38.80
2019-02-17T08:42:45.858Z,34.63
2019-02-17T08:45:50.902Z,38.50
2019-02-17T08:48:55.919Z,35.23
2019-02-17T08:52:00.998Z,37.67
2019-02-17T08:55:07.163Z,33.10
2019-02-17T08:58:12.241Z,34.87
2019-02-17T09:01:17.387Z,36.40
2019-02-17T09:04:22.565Z,32.93
2019-02-17T09:07:27.544Z,36.00
2019-02-17T09:10:32.671Z,34.13
2019-02-17T09:13:37.738Z,33.70
2019-02-17T09:16:42.695Z,34.13
2019-02-17T09:19:47.995Z,35.03
2019-02-17T09:22:53.075Z,34.03
2019-02-17T09:25:58.184Z,34.90
2019-02-17T09:29:03.238Z,36.40
2019-02-17T09:32:15.997Z,41.63
2019-02-17T09:35:15.233Z,35.30
2019-02-17T09:38:20.355Z,34.80
2019-02-17T09:41:25.466Z,36.97
2019-02-17T09:44:30.580Z,34.60
2019-02-17T09:47:35.555Z,31.43
2019-02-17T09:50:40.683Z,31.27
2019-02-17T09:53:45.796Z,32.57
2019-02-17T09:56:50.920Z,34.00
2019-02-17T09:59:55.897Z,32.40
2019-02-17T10:03:00.864Z,32.30
2019-02-17T10:06:05.916Z,36.03
2019-02-17T10:09:10.968Z,29.77
2019-02-17T10:12:16.012Z,31.00
2019-02-17T10:15:20.974Z,28.17
2019-02-17T10:18:26.087Z,31.87
2019-02-17T10:21:31.107Z,28.47
2019-02-17T10:24:36.175Z,28.37
2019-02-17T10:27:41.162Z,27.47
2019-02-17T10:30:46.280Z,27.20
2019-02-17T10:33:51.256Z,27.97
2019-02-17T10:36:56.379Z,26.30
2019-02-17T10:40:01.439Z,27.57
2019-02-17T10:43:06.539Z,27.20
2019-02-17T10:46:11.619Z,25.90
2019-02-17T10:49:16.667Z,28.03
2019-02-17T10:52:21.803Z,26.60
2019-02-17T10:55:26.952Z,24.90
2019-02-17T10:58:31.982Z,24.90
2019-02-17T11:01:37.036Z,25.27
2019-02-17T11:04:42.075Z,26.10
2019-02-17T11:07:47.145Z,26.00
2019-02-17T11:10:52.292Z,25.53
2019-02-17T11:13:57.362Z,24.90
2019-02-17T11:17:02.421Z,26.13
2019-02-17T11:20:07.651Z,26.20
2019-02-17T11:23:12.663Z,26.50
2019-02-17T11:26:17.773Z,26.20
2019-02-17T11:29:22.947Z,25.10
2019-02-17T11:32:28.058Z,26.17
2019-02-17T11:35:33.947Z,26.40
2019-02-17T11:38:38.997Z,24.57
2019-02-17T11:41:44.128Z,25.63
2019-02-17T11:44:49.212Z,24.03
2019-02-17T11:47:54.551Z,23.90
2019-02-17T11:50:59.592Z,25.67
2019-02-17T11:54:04.763Z,24.13
2019-02-17T11:57:09.897Z,22.23
2019-02-17T12:00:17.275Z,23.57
2019-02-17T12:03:22.322Z,25.77
2019-02-17T12:06:27.445Z,22.17
2019-02-17T12:09:32.566Z,25.40
2019-02-17T12:12:37.752Z,21.93
2019-02-17T12:15:42.796Z,23.03
2019-02-17T12:18:48.057Z,22.20
2019-02-17T12:21:58.275Z,21.63
2019-02-17T12:25:14.063Z,22.20
2019-02-17T12:28:23.946Z,21.73
2019-02-17T12:31:33.476Z,21.23
2019-02-17T12:34:38.622Z,21.50
2019-02-17T12:37:43.602Z,20.57
2019-02-17T12:40:48.641Z,25.33
2019-02-17T12:43:53.684Z,20.80
2019-02-17T12:46:59.241Z,18.80
2019-02-17T12:50:05.100Z,25.13
2019-02-17T12:53:10.270Z,20.93
2019-02-17T12:56:15.441Z,17.73
2019-02-17T12:59:20.392Z,21.80
2019-02-17T13:02:25.391Z,18.83
2019-02-17T13:05:30.549Z,17.93
2019-02-17T13:08:35.599Z,17.03
2019-02-17T13:11:40.799Z,16.37
2019-02-17T13:14:45.915Z,18.37
2019-02-17T13:17:52.981Z,17.87
2019-02-17T13:20:57.716Z,16.43
2019-02-17T13:24:02.852Z,14.87
2019-02-17T13:27:07.973Z,16.33
2019-02-17T13:30:18.256Z,14.20
2019-02-17T13:33:23.392Z,16.80
2019-02-17T13:36:28.436Z,14.87
2019-02-17T13:39:33.575Z,14.10
2019-02-17T13:42:38.701Z,15.97
2019-02-17T13:45:44.826Z,14.63
2019-02-17T13:48:50.054Z,17.73
2019-02-17T13:51:55.177Z,17.47
2019-02-17T13:55:00.412Z,14.80
2019-02-17T13:58:05.450Z,17.20
2019-02-17T14:01:10.604Z,16.47
2019-02-17T14:04:15.768Z,17.07
2019-02-17T14:07:20.891Z,18.47
2019-02-17T14:10:25.935Z,14.20
2019-02-17T14:13:31.063Z,16.03
2019-02-17T14:16:36.124Z,19.30
2019-02-17T14:19:41.342Z,17.80
2019-02-17T14:22:47.281Z,15.23
2019-02-17T14:25:52.462Z,14.50
2019-02-17T14:28:57.613Z,12.87
2019-02-17T14:32:02.644Z,12.87
2019-02-17T14:35:07.799Z,17.03
2019-02-17T14:38:12.908Z,12.30
2019-02-17T14:41:18.090Z,15.63
2019-02-17T14:44:23.188Z,12.90
2019-02-17T14:47:28.284Z,13.83
2019-02-17T14:50:33.400Z,12.90
2019-02-17T14:53:38.601Z,15.70
2019-02-17T14:56:43.652Z,17.70
2019-02-17T14:59:48.715Z,13.30
2019-02-17T15:02:53.737Z,12.10
2019-02-17T15:05:58.704Z,14.40
2019-02-17T15:09:05.508Z,11.90
2019-02-17T15:12:10.467Z,15.77
2019-02-17T15:15:15.624Z,15.50
2019-02-17T15:18:20.686Z,13.57
2019-02-17T15:21:25.702Z,13.33
2019-02-17T15:24:30.764Z,14.50
2019-02-17T15:27:35.888Z,14.30
2019-02-17T15:30:41.023Z,15.07
2019-02-17T15:33:46.078Z,13.17
2019-02-17T15:36:51.219Z,19.70
2019-02-17T15:39:56.198Z,15.20
2019-02-17T15:43:01.729Z,15.87
2019-02-17T15:46:06.849Z,16.43
2019-02-17T15:49:11.932Z,19.07
2019-02-17T15:52:16.931Z,18.23
2019-02-17T15:55:22.193Z,17.17
2019-02-17T15:58:27.258Z,17.50
2019-02-17T16:01:32.308Z,17.70
2019-02-17T16:04:37.626Z,16.07
2019-02-17T16:07:42.913Z,15.27
2019-02-17T16:10:47.968Z,17.23
2019-02-17T16:13:53.103Z,16.93
2019-02-17T16:16:58.099Z,17.30
2019-02-17T16:20:04.496Z,19.53
2019-02-17T16:23:09.544Z,16.10
2019-02-17T16:26:14.602Z,17.40
2019-02-17T16:29:19.605Z,14.87
2019-02-17T16:32:26.433Z,13.93
2019-02-17T16:35:31.503Z,13.03
2019-02-17T16:38:36.543Z,16.90
2019-02-17T16:41:41.898Z,18.13
2019-02-17T16:44:47.017Z,12.70
2019-02-17T16:47:52.115Z,15.97
2019-02-17T16:50:57.167Z,16.13
2019-02-17T16:54:04.104Z,17.60
2019-02-17T16:57:09.235Z,22.00
2019-02-17T17:00:18.140Z,17.60
2019-02-17T17:03:23.295Z,17.20
2019-02-17T17:06:28.420Z,17.63
2019-02-17T17:09:33.562Z,20.07
2019-02-17T17:12:38.725Z,20.73
2019-02-17T17:15:43.770Z,24.13
2019-02-17T17:18:48.783Z,21.97
2019-02-17T17:21:54.868Z,19.20
2019-02-17T17:24:59.946Z,21.07
2019-02-17T17:28:05.088Z,22.00
2019-02-17T17:31:10.352Z,24.20
2019-02-17T17:34:15.352Z,22.60
2019-02-17T17:37:20.392Z,25.73
2019-02-17T17:40:25.672Z,24.97
2019-02-17T17:43:30.634Z,22.00
2019-02-17T17:46:35.680Z,18.33
2019-02-17T17:49:40.718Z,17.47
2019-02-17T17:52:45.929Z,22.10
2019-02-17T17:55:51.052Z,24.90
2019-02-17T17:58:56.187Z,19.03
2019-02-17T18:02:01.173Z,25.23
2019-02-17T18:05:09.135Z,18.37
2019-02-17T18:08:13.035Z,21.40
2019-02-17T18:11:18.672Z,24.30
2019-02-17T18:14:23.808Z,22.07
2019-02-17T18:17:28.891Z,26.20
2019-02-17T18:20:35.361Z,25.80
2019-02-17T18:23:40.929Z,31.53
2019-02-17T18:26:45.904Z,31.27
2019-02-17T18:29:50.972Z,47.83
2019-02-17T18:32:55.945Z,51.50
2019-02-17T18:36:01.085Z,49.80
2019-02-17T18:39:06.921Z,34.47
2019-02-17T18:42:11.968Z,30.00
2019-02-17T18:45:18.021Z,26.83
2019-02-17T18:48:23.063Z,30.20
2019-02-17T18:51:29.375Z,23.23
2019-02-17T18:54:37.492Z,23.00
2019-02-17T18:57:49.539Z,29.23
2019-02-17T19:00:49.538Z,27.00
2019-02-17T19:03:54.727Z,23.53
2019-02-17T19:06:59.767Z,18.93
2019-02-17T19:10:06.283Z,22.67
2019-02-17T19:13:11.240Z,26.20
2019-02-17T19:16:16.294Z,20.97
2019-02-17T19:19:21.345Z,21.50
2019-02-17T19:22:26.410Z,20.13
2019-02-17T19:25:31.536Z,20.10
2019-02-17T19:28:36.567Z,20.30
2019-02-17T19:31:41.642Z,19.00
2019-02-17T19:34:46.608Z,16.83
2019-02-17T19:37:52.365Z,20.13
2019-02-17T19:40:57.376Z,15.93
2019-02-17T19:44:02.599Z,16.53
2019-02-17T19:47:07.617Z,16.90
2019-02-17T19:50:12.795Z,16.63
2019-02-17T19:53:17.886Z,17.30
2019-02-17T19:56:23.220Z,17.83
2019-02-17T19:59:28.556Z,16.93
2019-02-17T20:02:51.195Z,15.70
2019-02-17T20:05:59.068Z,14.87
2019-02-17T20:09:06.535Z,14.90
2019-02-17T20:12:11.676Z,16.93
2019-02-17T20:15:16.643Z,17.07
2019-02-17T20:18:21.619Z,15.80
2019-02-17T20:21:26.712Z,15.00
2019-02-17T20:24:31.957Z,15.00
2019-02-17T20:27:37.128Z,14.50
2019-02-17T20:30:42.312Z,16.17
2019-02-17T20:33:47.460Z,16.00
2019-02-17T20:36:52.565Z,14.40
2019-02-17T20:39:57.687Z,15.27
2019-02-17T20:43:02.739Z,13.90
2019-02-17T20:46:07.726Z,14.57
2019-02-17T20:49:12.849Z,14.87
2019-02-17T20:52:18.323Z,15.40
2019-02-17T20:55:23.632Z,15.33
2019-02-17T20:58:28.659Z,15.97
2019-02-17T21:01:33.863Z,14.80
2019-02-17T21:04:39.516Z,17.57
2019-02-17T21:07:44.688Z,15.40
2019-02-17T21:10:49.870Z,14.57
2019-02-17T21:13:55.401Z,15.03
2019-02-17T21:17:01.030Z,15.80
2019-02-17T21:20:07.742Z,14.33
2019-02-17T21:23:12.844Z,13.63
2019-02-17T21:26:17.903Z,14.37
2019-02-17T21:29:23.284Z,15.17
2019-02-17T21:32:28.596Z,14.47
2019-02-17T21:35:33.725Z,14.37
2019-02-17T21:38:39.199Z,14.73
2019-02-17T21:41:44.448Z,14.10
2019-02-17T21:44:49.515Z,15.63
2019-02-17T21:47:54.561Z,16.03
2019-02-17T21:50:59.672Z,14.20
2019-02-17T21:54:04.780Z,13.90
2019-02-17T21:57:09.890Z,14.07
2019-02-17T22:00:16.736Z,13.90
2019-02-17T22:03:21.795Z,14.60
2019-02-17T22:06:33.178Z,14.00
2019-02-17T22:09:33.639Z,13.57
2019-02-17T22:12:38.849Z,13.53
2019-02-17T22:15:43.813Z,13.67
2019-02-17T22:18:48.836Z,13.47
2019-02-17T22:21:53.892Z,15.30
2019-02-17T22:24:58.928Z,13.70
2019-02-17T22:28:04.065Z,14.07
2019-02-17T22:31:09.117Z,16.50
2019-02-17T22:34:14.225Z,16.00
2019-02-17T22:37:19.350Z,17.20
2019-02-17T22:40:24.383Z,13.27
2019-02-17T22:43:29.503Z,13.27
2019-02-17T22:46:34.535Z,13.93
2019-02-17T22:49:39.519Z,14.07
2019-02-17T22:52:45.236Z,16.00
2019-02-17T22:55:50.295Z,14.53
2019-02-17T22:58:55.482Z,18.87
2019-02-17T23:02:00.583Z,14.70
2019-02-17T23:05:06.286Z,20.50
2019-02-17T23:08:11.391Z,17.60
2019-02-17T23:11:16.507Z,19.90
2019-02-17T23:14:21.571Z,18.33
2019-02-17T23:17:26.612Z,19.83
2019-02-17T23:20:31.737Z,17.27
2019-02-17T23:23:36.864Z,17.13
2019-02-17T23:26:42.055Z,17.40
2019-02-17T23:29:47.103Z,17.60
2019-02-17T23:32:52.235Z,17.03
2019-02-17T23:35:57.283Z,16.97
2019-02-17T23:39:02.413Z,16.37
2019-02-17T23:42:07.632Z,16.67
2019-02-17T23:45:12.765Z,16.57
2019-02-17T23:48:18.142Z,15.90
2019-02-17T23:51:23.266Z,16.37
2019-02-17T23:54:28.388Z,16.10
2019-02-17T23:57:33.436Z,16.13
